sensor_id;sensor_type;location;lat;lon;timestamp;temperature;humidity
18506;DHT22;9382;53.242;10.438;2023-04-01T00:00:47;10.00;99.90
18506;DHT22;9382;53.242;10.438;2023-04-01T00:03:14;10.00;99.90
18506;DHT22;9382;53.242;10.438;2023-04-01T00:05:40;10.00;99.90
18506;DHT22;9382;53.242;10.438;2023-04-01T00:08:07;10.00;99.90
18506;DHT22;9382;53.242;10.438;2023-04-01T00:10:34;10.00;99.90
18506;DHT22;9382;53.242;10.438;2023-04-01T00:13:01;9.90;99.90
18506;DHT22;9382;53.242;10.438;2023-04-01T00:15:27;10.00;99.90
18506;DHT22;9382;53.242;10.438;2023-04-01T00:17:56;10.00;99.90
18506;DHT22;9382;53.242;10.438;2023-04-01T00:20:22;10.00;99.90
18506;DHT22;9382;53.242;10.438;2023-04-01T00:22:49;10.00;99.90
18506;DHT22;9382;53.242;10.438;2023-04-01T00:25:16;9.90;99.90
18506;DHT22;9382;53.242;10.438;2023-04-01T00:27:44;10.00;99.90
18506;DHT22;9382;53.242;10.438;2023-04-01T00:30:11;9.90;99.90
18506;DHT22;9382;53.242;10.438;2023-04-01T00:32:38;9.90;99.90
18506;DHT22;9382;53.242;10.438;2023-04-01T00:35:07;9.90;99.90
18506;DHT22;9382;53.242;10.438;2023-04-01T00:37:35;9.90;99.90
18506;DHT22;9382;53.242;10.438;2023-04-01T00:40:03;9.90;99.90
18506;DHT22;9382;53.242;10.438;2023-04-01T00:42:30;9.80;99.90
18506;DHT22;9382;53.242;10.438;2023-04-01T00:44:57;9.80;99.90
18506;DHT22;9382;53.242;10.438;2023-04-01T00:47:25;9.80;99.90
18506;DHT22;9382;53.242;10.438;2023-04-01T00:49:54;9.80;99.90
18506;DHT22;9382;53.242;10.438;2023-04-01T00:52:25;9.80;99.90
18506;DHT22;9382;53.242;10.438;2023-04-01T00:54:56;9.80;99.90
18506;DHT22;9382;53.242;10.438;2023-04-01T00:57:29;9.80;99.90
18506;DHT22;9382;53.242;10.438;2023-04-01T00:59:57;9.70;99.90
18506;DHT22;9382;53.242;10.438;2023-04-01T01:02:25;9.80;99.90
18506;DHT22;9382;53.242;10.438;2023-04-01T01:04:52;9.70;99.90
18506;DHT22;9382;53.242;10.438;2023-04-01T01:07:27;9.70;99.90
18506;DHT22;9382;53.242;10.438;2023-04-01T01:10:03;9.70;99.90
18506;DHT22;9382;53.242;10.438;2023-04-01T01:12:37;9.60;99.90
18506;DHT22;9382;53.242;10.438;2023-04-01T01:15:11;9.60;99.90
18506;DHT22;9382;53.242;10.438;2023-04-01T01:17:47;9.60;99.90
18506;DHT22;9382;53.242;10.438;2023-04-01T01:20:24;9.60;99.90
18506;DHT22;9382;53.242;10.438;2023-04-01T01:29:01;9.60;99.90
18506;DHT22;9382;53.242;10.438;2023-04-01T01:31:36;9.60;99.90
18506;DHT22;9382;53.242;10.438;2023-04-01T01:34:13;9.60;99.90
18506;DHT22;9382;53.242;10.438;2023-04-01T01:36:45;9.60;99.90
18506;DHT22;9382;53.242;10.438;2023-04-01T01:39:15;9.60;99.90
18506;DHT22;9382;53.242;10.438;2023-04-01T01:41:44;9.60;99.90
18506;DHT22;9382;53.242;10.438;2023-04-01T01:44:13;9.60;99.90
18506;DHT22;9382;53.242;10.438;2023-04-01T01:46:42;9.70;99.90
18506;DHT22;9382;53.242;10.438;2023-04-01T01:49:10;9.70;99.90
18506;DHT22;9382;53.242;10.438;2023-04-01T01:51:38;9.70;99.90
18506;DHT22;9382;53.242;10.438;2023-04-01T01:54:06;9.60;99.90
18506;DHT22;9382;53.242;10.438;2023-04-01T01:56:34;9.70;99.90
18506;DHT22;9382;53.242;10.438;2023-04-01T01:59:05;9.70;99.90
18506;DHT22;9382;53.242;10.438;2023-04-01T02:01:37;9.70;99.90
18506;DHT22;9382;53.242;10.438;2023-04-01T02:04:05;9.70;99.90
18506;DHT22;9382;53.242;10.438;2023-04-01T02:06:37;9.70;99.90
18506;DHT22;9382;53.242;10.438;2023-04-01T02:09:08;9.70;99.90
18506;DHT22;9382;53.242;10.438;2023-04-01T02:11:41;9.70;99.90
18506;DHT22;9382;53.242;10.438;2023-04-01T02:14:13;9.70;99.90
18506;DHT22;9382;53.242;10.438;2023-04-01T02:16:45;9.70;99.90
18506;DHT22;9382;53.242;10.438;2023-04-01T02:19:13;9.70;99.90
18506;DHT22;9382;53.242;10.438;2023-04-01T02:21:49;9.70;99.90
18506;DHT22;9382;53.242;10.438;2023-04-01T02:24:19;9.70;99.90
18506;DHT22;9382;53.242;10.438;2023-04-01T02:26:49;9.60;99.90
18506;DHT22;9382;53.242;10.438;2023-04-01T02:29:18;9.70;99.90
18506;DHT22;9382;53.242;10.438;2023-04-01T02:31:46;9.60;99.90
18506;DHT22;9382;53.242;10.438;2023-04-01T02:34:13;9.60;99.90
18506;DHT22;9382;53.242;10.438;2023-04-01T02:36:41;9.60;99.90
18506;DHT22;9382;53.242;10.438;2023-04-01T02:39:08;9.70;99.90
18506;DHT22;9382;53.242;10.438;2023-04-01T02:41:40;9.70;99.90
18506;DHT22;9382;53.242;10.438;2023-04-01T02:44:07;9.70;99.90
18506;DHT22;9382;53.242;10.438;2023-04-01T02:46:34;9.60;99.90
18506;DHT22;9382;53.242;10.438;2023-04-01T02:49:01;9.70;99.90
18506;DHT22;9382;53.242;10.438;2023-04-01T02:51:28;9.60;99.90
18506;DHT22;9382;53.242;10.438;2023-04-01T02:53:55;9.70;99.90
18506;DHT22;9382;53.242;10.438;2023-04-01T02:56:22;9.60;99.90
18506;DHT22;9382;53.242;10.438;2023-04-01T02:58:50;9.70;99.90
18506;DHT22;9382;53.242;10.438;2023-04-01T03:01:17;9.70;99.90
18506;DHT22;9382;53.242;10.438;2023-04-01T03:03:43;9.60;99.90
18506;DHT22;9382;53.242;10.438;2023-04-01T03:06:13;9.70;99.90
18506;DHT22;9382;53.242;10.438;2023-04-01T03:08:40;9.70;99.90
18506;DHT22;9382;53.242;10.438;2023-04-01T03:11:08;9.70;99.90
18506;DHT22;9382;53.242;10.438;2023-04-01T03:13:35;9.70;99.90
18506;DHT22;9382;53.242;10.438;2023-04-01T03:16:03;9.70;99.90
18506;DHT22;9382;53.242;10.438;2023-04-01T03:18:30;9.70;99.90
18506;DHT22;9382;53.242;10.438;2023-04-01T03:20:57;9.70;99.90
18506;DHT22;9382;53.242;10.438;2023-04-01T03:23:24;9.70;99.90
18506;DHT22;9382;53.242;10.438;2023-04-01T03:25:51;9.70;99.90
18506;DHT22;9382;53.242;10.438;2023-04-01T03:28:17;9.70;99.90
18506;DHT22;9382;53.242;10.438;2023-04-01T03:30:44;9.70;99.90
18506;DHT22;9382;53.242;10.438;2023-04-01T03:33:12;9.70;99.90
18506;DHT22;9382;53.242;10.438;2023-04-01T03:35:39;9.80;99.90
18506;DHT22;9382;53.242;10.438;2023-04-01T03:38:06;9.80;99.90
18506;DHT22;9382;53.242;10.438;2023-04-01T03:40:32;9.80;99.90
18506;DHT22;9382;53.242;10.438;2023-04-01T03:43:02;9.70;99.90
18506;DHT22;9382;53.242;10.438;2023-04-01T03:45:33;9.70;99.90
18506;DHT22;9382;53.242;10.438;2023-04-01T03:48:00;9.70;99.90
18506;DHT22;9382;53.242;10.438;2023-04-01T03:50:28;9.80;99.90
18506;DHT22;9382;53.242;10.438;2023-04-01T03:52:55;9.80;99.90
18506;DHT22;9382;53.242;10.438;2023-04-01T03:55:22;9.70;99.90
18506;DHT22;9382;53.242;10.438;2023-04-01T03:57:48;9.80;99.90
18506;DHT22;9382;53.242;10.438;2023-04-01T04:00:15;9.70;99.90
18506;DHT22;9382;53.242;10.438;2023-04-01T04:02:42;9.80;99.90
18506;DHT22;9382;53.242;10.438;2023-04-01T04:05:09;9.70;99.90
18506;DHT22;9382;53.242;10.438;2023-04-01T04:07:37;9.70;99.90
18506;DHT22;9382;53.242;10.438;2023-04-01T04:10:05;9.70;99.90
18506;DHT22;9382;53.242;10.438;2023-04-01T04:12:32;9.70;99.90
18506;DHT22;9382;53.242;10.438;2023-04-01T04:14:58;9.70;99.90
18506;DHT22;9382;53.242;10.438;2023-04-01T04:17:25;9.70;99.90
18506;DHT22;9382;53.242;10.438;2023-04-01T04:19:52;9.70;99.90
18506;DHT22;9382;53.242;10.438;2023-04-01T04:22:19;9.70;99.90
18506;DHT22;9382;53.242;10.438;2023-04-01T04:24:47;9.70;99.90
18506;DHT22;9382;53.242;10.438;2023-04-01T04:27:13;9.70;99.90
18506;DHT22;9382;53.242;10.438;2023-04-01T04:29:40;9.70;99.90
18506;DHT22;9382;53.242;10.438;2023-04-01T04:32:07;9.70;99.90
18506;DHT22;9382;53.242;10.438;2023-04-01T04:34:34;9.70;99.90
18506;DHT22;9382;53.242;10.438;2023-04-01T04:37:00;9.80;99.90
18506;DHT22;9382;53.242;10.438;2023-04-01T04:39:27;9.70;99.90
18506;DHT22;9382;53.242;10.438;2023-04-01T04:41:55;9.70;99.90
18506;DHT22;9382;53.242;10.438;2023-04-01T04:44:22;9.70;99.90
18506;DHT22;9382;53.242;10.438;2023-04-01T04:46:49;9.70;99.90
18506;DHT22;9382;53.242;10.438;2023-04-01T04:49:16;9.70;99.90
18506;DHT22;9382;53.242;10.438;2023-04-01T04:51:43;9.70;99.90
18506;DHT22;9382;53.242;10.438;2023-04-01T04:54:10;9.70;99.90
18506;DHT22;9382;53.242;10.438;2023-04-01T04:56:37;9.70;99.90
18506;DHT22;9382;53.242;10.438;2023-04-01T04:59:05;9.70;99.90
18506;DHT22;9382;53.242;10.438;2023-04-01T05:01:32;9.70;99.90
18506;DHT22;9382;53.242;10.438;2023-04-01T05:03:59;9.70;99.90
18506;DHT22;9382;53.242;10.438;2023-04-01T05:06:26;9.60;99.90
18506;DHT22;9382;53.242;10.438;2023-04-01T05:08:55;9.60;99.90
18506;DHT22;9382;53.242;10.438;2023-04-01T05:11:22;9.60;99.90
18506;DHT22;9382;53.242;10.438;2023-04-01T05:13:51;9.60;99.90
18506;DHT22;9382;53.242;10.438;2023-04-01T05:16:20;9.70;99.90
18506;DHT22;9382;53.242;10.438;2023-04-01T05:18:47;9.70;99.90
18506;DHT22;9382;53.242;10.438;2023-04-01T05:21:14;9.70;99.90
18506;DHT22;9382;53.242;10.438;2023-04-01T05:23:41;9.70;99.90
18506;DHT22;9382;53.242;10.438;2023-04-01T05:26:10;9.70;99.90
18506;DHT22;9382;53.242;10.438;2023-04-01T05:28:37;9.70;99.90
18506;DHT22;9382;53.242;10.438;2023-04-01T05:31:05;9.70;99.90
18506;DHT22;9382;53.242;10.438;2023-04-01T05:33:33;9.70;99.90
18506;DHT22;9382;53.242;10.438;2023-04-01T05:36:06;9.80;99.90
18506;DHT22;9382;53.242;10.438;2023-04-01T05:38:33;9.80;99.90
18506;DHT22;9382;53.242;10.438;2023-04-01T05:41:00;9.80;99.90
18506;DHT22;9382;53.242;10.438;2023-04-01T05:43:27;9.80;99.90
18506;DHT22;9382;53.242;10.438;2023-04-01T05:45:55;9.90;99.90
18506;DHT22;9382;53.242;10.438;2023-04-01T05:48:22;9.90;99.90
18506;DHT22;9382;53.242;10.438;2023-04-01T05:50:50;9.90;99.90
18506;DHT22;9382;53.242;10.438;2023-04-01T05:53:16;10.00;99.90
18506;DHT22;9382;53.242;10.438;2023-04-01T05:55:43;10.00;99.90
18506;DHT22;9382;53.242;10.438;2023-04-01T05:58:10;10.00;99.90
18506;DHT22;9382;53.242;10.438;2023-04-01T06:00:37;10.10;99.90
18506;DHT22;9382;53.242;10.438;2023-04-01T06:03:03;10.10;99.90
18506;DHT22;9382;53.242;10.438;2023-04-01T06:05:38;10.10;99.90
18506;DHT22;9382;53.242;10.438;2023-04-01T06:08:10;10.20;99.90
18506;DHT22;9382;53.242;10.438;2023-04-01T06:10:44;10.20;99.90
18506;DHT22;9382;53.242;10.438;2023-04-01T06:13:22;10.30;99.90
18506;DHT22;9382;53.242;10.438;2023-04-01T06:15:56;10.30;99.90
18506;DHT22;9382;53.242;10.438;2023-04-01T06:18:45;10.30;99.90
18506;DHT22;9382;53.242;10.438;2023-04-01T06:24:30;10.40;99.90
18506;DHT22;9382;53.242;10.438;2023-04-01T06:27:05;10.40;99.90
18506;DHT22;9382;53.242;10.438;2023-04-01T06:29:47;10.50;99.90
18506;DHT22;9382;53.242;10.438;2023-04-01T06:35:34;10.50;99.90
18506;DHT22;9382;53.242;10.438;2023-04-01T06:38:20;10.50;99.90
18506;DHT22;9382;53.242;10.438;2023-04-01T06:41:18;10.50;99.90
18506;DHT22;9382;53.242;10.438;2023-04-01T06:43:54;10.50;99.90
18506;DHT22;9382;53.242;10.438;2023-04-01T06:46:30;10.50;99.90
18506;DHT22;9382;53.242;10.438;2023-04-01T06:49:17;10.50;99.90
18506;DHT22;9382;53.242;10.438;2023-04-01T06:51:51;10.30;99.90
18506;DHT22;9382;53.242;10.438;2023-04-01T06:54:23;10.20;99.90
18506;DHT22;9382;53.242;10.438;2023-04-01T06:56:58;10.10;99.90
18506;DHT22;9382;53.242;10.438;2023-04-01T06:59:28;9.90;99.90
18506;DHT22;9382;53.242;10.438;2023-04-01T07:01:59;9.60;99.90
18506;DHT22;9382;53.242;10.438;2023-04-01T07:04:30;9.50;99.90
18506;DHT22;9382;53.242;10.438;2023-04-01T07:06:59;9.30;99.90
18506;DHT22;9382;53.242;10.438;2023-04-01T07:09:31;9.20;99.90
18506;DHT22;9382;53.242;10.438;2023-04-01T07:12:04;9.00;99.90
18506;DHT22;9382;53.242;10.438;2023-04-01T07:14:35;9.00;99.90
18506;DHT22;9382;53.242;10.438;2023-04-01T07:17:06;9.00;99.90
18506;DHT22;9382;53.242;10.438;2023-04-01T07:19:39;9.00;99.90
18506;DHT22;9382;53.242;10.438;2023-04-01T07:22:17;9.00;99.90
18506;DHT22;9382;53.242;10.438;2023-04-01T07:24:48;8.90;99.90
18506;DHT22;9382;53.242;10.438;2023-04-01T07:27:16;8.80;99.90
18506;DHT22;9382;53.242;10.438;2023-04-01T07:29:43;8.80;99.90
18506;DHT22;9382;53.242;10.438;2023-04-01T07:32:27;8.80;99.90
18506;DHT22;9382;53.242;10.438;2023-04-01T07:35:09;8.70;99.90
18506;DHT22;9382;53.242;10.438;2023-04-01T07:37:49;8.60;99.90
18506;DHT22;9382;53.242;10.438;2023-04-01T07:40:23;8.50;99.90
18506;DHT22;9382;53.242;10.438;2023-04-01T07:43:17;8.40;99.90
18506;DHT22;9382;53.242;10.438;2023-04-01T07:45:53;8.30;99.90
18506;DHT22;9382;53.242;10.438;2023-04-01T07:48:31;8.30;99.90
18506;DHT22;9382;53.242;10.438;2023-04-01T07:51:02;8.30;99.90
18506;DHT22;9382;53.242;10.438;2023-04-01T07:53:34;8.40;99.90
18506;DHT22;9382;53.242;10.438;2023-04-01T07:56:06;8.50;99.90
18506;DHT22;9382;53.242;10.438;2023-04-01T07:58:42;8.40;99.90
18506;DHT22;9382;53.242;10.438;2023-04-01T08:01:16;8.50;99.90
18506;DHT22;9382;53.242;10.438;2023-04-01T08:03:56;8.50;99.90
18506;DHT22;9382;53.242;10.438;2023-04-01T08:06:32;8.50;99.90
18506;DHT22;9382;53.242;10.438;2023-04-01T08:09:06;8.50;99.90
18506;DHT22;9382;53.242;10.438;2023-04-01T08:11:47;8.50;99.90
18506;DHT22;9382;53.242;10.438;2023-04-01T08:14:24;8.40;99.90
18506;DHT22;9382;53.242;10.438;2023-04-01T08:16:59;8.40;99.90
18506;DHT22;9382;53.242;10.438;2023-04-01T08:19:36;8.40;99.90
18506;DHT22;9382;53.242;10.438;2023-04-01T08:22:11;8.50;99.90
18506;DHT22;9382;53.242;10.438;2023-04-01T08:24:45;8.50;99.90
18506;DHT22;9382;53.242;10.438;2023-04-01T08:27:17;8.60;99.90
18506;DHT22;9382;53.242;10.438;2023-04-01T08:29:51;8.50;99.90
18506;DHT22;9382;53.242;10.438;2023-04-01T08:32:26;8.30;99.90
18506;DHT22;9382;53.242;10.438;2023-04-01T08:35:02;8.30;99.90
18506;DHT22;9382;53.242;10.438;2023-04-01T08:37:36;8.20;99.90
18506;DHT22;9382;53.242;10.438;2023-04-01T08:40:25;8.10;99.90
18506;DHT22;9382;53.242;10.438;2023-04-01T08:43:05;8.20;99.90
18506;DHT22;9382;53.242;10.438;2023-04-01T08:45:48;8.10;99.90
18506;DHT22;9382;53.242;10.438;2023-04-01T08:48:31;8.10;99.90
18506;DHT22;9382;53.242;10.438;2023-04-01T08:57:03;8.10;99.90
18506;DHT22;9382;53.242;10.438;2023-04-01T08:59:53;8.10;99.90
18506;DHT22;9382;53.242;10.438;2023-04-01T09:02:45;8.10;99.90
18506;DHT22;9382;53.242;10.438;2023-04-01T09:08:23;8.30;99.90
18506;DHT22;9382;53.242;10.438;2023-04-01T09:11:12;8.30;99.90
18506;DHT22;9382;53.242;10.438;2023-04-01T09:14:17;8.40;99.90
18506;DHT22;9382;53.242;10.438;2023-04-01T09:17:12;8.50;99.90
18506;DHT22;9382;53.242;10.438;2023-04-01T09:19:59;8.40;99.90
18506;DHT22;9382;53.242;10.438;2023-04-01T09:22:44;8.40;99.90
18506;DHT22;9382;53.242;10.438;2023-04-01T09:25:24;8.40;99.90
18506;DHT22;9382;53.242;10.438;2023-04-01T09:27:57;8.20;99.90
18506;DHT22;9382;53.242;10.438;2023-04-01T09:30:46;8.10;99.90
18506;DHT22;9382;53.242;10.438;2023-04-01T09:33:46;8.00;99.90
18506;DHT22;9382;53.242;10.438;2023-04-01T09:36:28;8.00;99.90
18506;DHT22;9382;53.242;10.438;2023-04-01T09:39:09;8.00;99.90
18506;DHT22;9382;53.242;10.438;2023-04-01T09:41:47;8.00;99.90
18506;DHT22;9382;53.242;10.438;2023-04-01T09:44:21;8.00;99.90
18506;DHT22;9382;53.242;10.438;2023-04-01T09:47:01;8.00;99.90
18506;DHT22;9382;53.242;10.438;2023-04-01T09:49:56;7.90;99.90
18506;DHT22;9382;53.242;10.438;2023-04-01T09:52:33;8.10;99.90
18506;DHT22;9382;53.242;10.438;2023-04-01T09:55:32;8.20;99.90
18506;DHT22;9382;53.242;10.438;2023-04-01T09:58:38;8.30;99.90
18506;DHT22;9382;53.242;10.438;2023-04-01T10:01:39;8.30;99.90
18506;DHT22;9382;53.242;10.438;2023-04-01T10:04:44;8.40;99.90
18506;DHT22;9382;53.242;10.438;2023-04-01T10:07:46;8.30;99.90
18506;DHT22;9382;53.242;10.438;2023-04-01T10:13:50;8.30;99.90
18506;DHT22;9382;53.242;10.438;2023-04-01T10:16:41;8.30;99.90
18506;DHT22;9382;53.242;10.438;2023-04-01T10:19:42;8.30;99.90
18506;DHT22;9382;53.242;10.438;2023-04-01T10:22:36;8.30;99.90
18506;DHT22;9382;53.242;10.438;2023-04-01T10:25:23;8.20;99.90
18506;DHT22;9382;53.242;10.438;2023-04-01T10:28:19;8.30;99.90
18506;DHT22;9382;53.242;10.438;2023-04-01T10:31:14;8.30;99.90
18506;DHT22;9382;53.242;10.438;2023-04-01T10:33:56;8.40;99.90
18506;DHT22;9382;53.242;10.438;2023-04-01T10:36:52;8.60;99.90
18506;DHT22;9382;53.242;10.438;2023-04-01T10:39:48;8.60;99.90
18506;DHT22;9382;53.242;10.438;2023-04-01T10:51:52;8.70;99.90
18506;DHT22;9382;53.242;10.438;2023-04-01T10:54:43;8.80;99.90
18506;DHT22;9382;53.242;10.438;2023-04-01T10:57:28;8.80;99.90
18506;DHT22;9382;53.242;10.438;2023-04-01T11:00:18;8.60;99.90
18506;DHT22;9382;53.242;10.438;2023-04-01T11:15:53;8.50;99.90
18506;DHT22;9382;53.242;10.438;2023-04-01T11:21:58;8.70;99.90
18506;DHT22;9382;53.242;10.438;2023-04-01T11:24:45;8.80;99.90
18506;DHT22;9382;53.242;10.438;2023-04-01T11:27:33;8.90;99.90
18506;DHT22;9382;53.242;10.438;2023-04-01T11:30:20;9.10;99.90
18506;DHT22;9382;53.242;10.438;2023-04-01T11:32:53;9.10;99.90
18506;DHT22;9382;53.242;10.438;2023-04-01T11:35:32;9.00;99.90
18506;DHT22;9382;53.242;10.438;2023-04-01T11:38:12;8.90;99.90
18506;DHT22;9382;53.242;10.438;2023-04-01T11:40:46;8.80;99.90
18506;DHT22;9382;53.242;10.438;2023-04-01T11:43:21;8.80;99.90
18506;DHT22;9382;53.242;10.438;2023-04-01T11:45:53;8.70;99.90
18506;DHT22;9382;53.242;10.438;2023-04-01T11:48:38;8.70;99.90
18506;DHT22;9382;53.242;10.438;2023-04-01T11:51:38;8.70;99.90
18506;DHT22;9382;53.242;10.438;2023-04-01T11:54:19;8.40;99.90
18506;DHT22;9382;53.242;10.438;2023-04-01T11:57:01;8.20;99.90
18506;DHT22;9382;53.242;10.438;2023-04-01T12:02:28;7.90;99.90
18506;DHT22;9382;53.242;10.438;2023-04-01T12:05:17;7.80;99.90
18506;DHT22;9382;53.242;10.438;2023-04-01T12:07:57;7.70;99.90
18506;DHT22;9382;53.242;10.438;2023-04-01T12:10:34;7.80;99.90
18506;DHT22;9382;53.242;10.438;2023-04-01T12:13:14;7.80;99.90
18506;DHT22;9382;53.242;10.438;2023-04-01T12:15:58;7.80;99.90
18506;DHT22;9382;53.242;10.438;2023-04-01T12:18:33;7.80;99.90
18506;DHT22;9382;53.242;10.438;2023-04-01T12:21:12;7.80;99.90
18506;DHT22;9382;53.242;10.438;2023-04-01T12:26:52;7.90;99.90
18506;DHT22;9382;53.242;10.438;2023-04-01T12:32:25;7.90;99.90
18506;DHT22;9382;53.242;10.438;2023-04-01T12:35:02;7.90;99.90
18506;DHT22;9382;53.242;10.438;2023-04-01T12:37:44;7.90;99.90
18506;DHT22;9382;53.242;10.438;2023-04-01T12:40:28;7.90;99.90
18506;DHT22;9382;53.242;10.438;2023-04-01T12:43:18;8.00;99.90
18506;DHT22;9382;53.242;10.438;2023-04-01T12:45:56;8.00;99.90
18506;DHT22;9382;53.242;10.438;2023-04-01T12:49:05;8.10;99.90
18506;DHT22;9382;53.242;10.438;2023-04-01T12:51:50;8.00;99.90
18506;DHT22;9382;53.242;10.438;2023-04-01T12:57:46;7.80;99.90
18506;DHT22;9382;53.242;10.438;2023-04-01T13:00:41;7.60;99.90
18506;DHT22;9382;53.242;10.438;2023-04-01T13:03:22;7.50;99.90
18506;DHT22;9382;53.242;10.438;2023-04-01T13:06:18;7.50;99.90
18506;DHT22;9382;53.242;10.438;2023-04-01T13:08:52;7.50;99.90
18506;DHT22;9382;53.242;10.438;2023-04-01T13:11:30;7.40;99.90
18506;DHT22;9382;53.242;10.438;2023-04-01T13:14:22;7.40;99.90
18506;DHT22;9382;53.242;10.438;2023-04-01T13:16:58;7.30;99.90
18506;DHT22;9382;53.242;10.438;2023-04-01T13:19:31;7.40;99.90
18506;DHT22;9382;53.242;10.438;2023-04-01T13:22:08;7.40;99.90
18506;DHT22;9382;53.242;10.438;2023-04-01T13:24:48;7.50;99.90
18506;DHT22;9382;53.242;10.438;2023-04-01T13:27:21;7.50;99.90
18506;DHT22;9382;53.242;10.438;2023-04-01T13:30:02;7.50;99.90
18506;DHT22;9382;53.242;10.438;2023-04-01T13:32:40;7.50;99.90
18506;DHT22;9382;53.242;10.438;2023-04-01T13:35:23;7.40;99.90
18506;DHT22;9382;53.242;10.438;2023-04-01T13:38:03;7.40;99.90
18506;DHT22;9382;53.242;10.438;2023-04-01T13:40:42;7.40;99.90
18506;DHT22;9382;53.242;10.438;2023-04-01T13:43:16;7.30;99.90
18506;DHT22;9382;53.242;10.438;2023-04-01T13:46:18;7.20;99.90
18506;DHT22;9382;53.242;10.438;2023-04-01T13:49:16;7.30;99.90
18506;DHT22;9382;53.242;10.438;2023-04-01T13:51:57;7.30;99.90
18506;DHT22;9382;53.242;10.438;2023-04-01T13:54:52;7.20;99.90
18506;DHT22;9382;53.242;10.438;2023-04-01T13:57:42;7.20;99.90
18506;DHT22;9382;53.242;10.438;2023-04-01T14:00:22;7.20;99.90
18506;DHT22;9382;53.242;10.438;2023-04-01T14:03:03;7.20;99.90
18506;DHT22;9382;53.242;10.438;2023-04-01T14:06:00;7.20;99.90
18506;DHT22;9382;53.242;10.438;2023-04-01T14:08:42;7.10;99.90
18506;DHT22;9382;53.242;10.438;2023-04-01T14:11:19;7.00;99.90
18506;DHT22;9382;53.242;10.438;2023-04-01T14:13:58;7.00;99.90
18506;DHT22;9382;53.242;10.438;2023-04-01T14:16:58;6.80;99.90
18506;DHT22;9382;53.242;10.438;2023-04-01T14:22:28;6.70;99.90
18506;DHT22;9382;53.242;10.438;2023-04-01T14:25:17;6.70;99.90
18506;DHT22;9382;53.242;10.438;2023-04-01T14:27:58;6.70;99.90
18506;DHT22;9382;53.242;10.438;2023-04-01T14:30:50;6.80;99.90
18506;DHT22;9382;53.242;10.438;2023-04-01T14:33:34;6.80;99.90
18506;DHT22;9382;53.242;10.438;2023-04-01T14:36:32;6.80;99.90
18506;DHT22;9382;53.242;10.438;2023-04-01T14:39:15;6.60;99.90
18506;DHT22;9382;53.242;10.438;2023-04-01T14:41:48;6.60;99.90
18506;DHT22;9382;53.242;10.438;2023-04-01T14:44:27;6.60;99.90
18506;DHT22;9382;53.242;10.438;2023-04-01T14:47:21;6.60;99.90
18506;DHT22;9382;53.242;10.438;2023-04-01T14:49:52;6.50;99.90
18506;DHT22;9382;53.242;10.438;2023-04-01T14:52:24;6.50;99.90
18506;DHT22;9382;53.242;10.438;2023-04-01T14:54:56;6.50;99.90
18506;DHT22;9382;53.242;10.438;2023-04-01T14:57:26;6.40;99.90
18506;DHT22;9382;53.242;10.438;2023-04-01T14:59:59;6.40;99.90
18506;DHT22;9382;53.242;10.438;2023-04-01T15:02:40;6.40;99.90
18506;DHT22;9382;53.242;10.438;2023-04-01T15:05:16;6.50;99.90
18506;DHT22;9382;53.242;10.438;2023-04-01T15:11:13;6.40;99.90
18506;DHT22;9382;53.242;10.438;2023-04-01T15:14:01;6.30;99.90
18506;DHT22;9382;53.242;10.438;2023-04-01T15:16:35;6.30;99.90
18506;DHT22;9382;53.242;10.438;2023-04-01T15:19:14;6.30;99.90
18506;DHT22;9382;53.242;10.438;2023-04-01T15:21:55;6.30;99.90
18506;DHT22;9382;53.242;10.438;2023-04-01T15:24:25;6.20;99.90
18506;DHT22;9382;53.242;10.438;2023-04-01T15:27:11;6.20;99.90
18506;DHT22;9382;53.242;10.438;2023-04-01T15:29:47;6.20;99.90
18506;DHT22;9382;53.242;10.438;2023-04-01T15:32:20;6.20;99.90
18506;DHT22;9382;53.242;10.438;2023-04-01T15:34:53;6.10;99.90
18506;DHT22;9382;53.242;10.438;2023-04-01T15:37:33;6.20;99.90
18506;DHT22;9382;53.242;10.438;2023-04-01T15:40:14;6.10;99.90
18506;DHT22;9382;53.242;10.438;2023-04-01T15:42:55;6.10;99.90
18506;DHT22;9382;53.242;10.438;2023-04-01T15:45:34;6.10;99.90
18506;DHT22;9382;53.242;10.438;2023-04-01T15:48:18;6.10;99.90
18506;DHT22;9382;53.242;10.438;2023-04-01T15:51:07;6.10;99.90
18506;DHT22;9382;53.242;10.438;2023-04-01T15:53:54;6.00;99.90
18506;DHT22;9382;53.242;10.438;2023-04-01T15:56:36;6.00;99.90
18506;DHT22;9382;53.242;10.438;2023-04-01T15:59:19;6.00;99.90
18506;DHT22;9382;53.242;10.438;2023-04-01T16:01:55;6.00;99.90
18506;DHT22;9382;53.242;10.438;2023-04-01T16:04:43;6.00;99.90
18506;DHT22;9382;53.242;10.438;2023-04-01T16:07:30;5.90;99.90
18506;DHT22;9382;53.242;10.438;2023-04-01T16:10:16;6.00;99.90
18506;DHT22;9382;53.242;10.438;2023-04-01T16:12:57;5.90;99.90
18506;DHT22;9382;53.242;10.438;2023-04-01T16:15:33;5.90;99.90
18506;DHT22;9382;53.242;10.438;2023-04-01T16:18:22;5.90;99.90
18506;DHT22;9382;53.242;10.438;2023-04-01T16:20:55;5.90;99.90
18506;DHT22;9382;53.242;10.438;2023-04-01T16:23:26;5.90;99.90
18506;DHT22;9382;53.242;10.438;2023-04-01T16:26:03;5.80;99.90
18506;DHT22;9382;53.242;10.438;2023-04-01T16:28:36;5.80;99.90
18506;DHT22;9382;53.242;10.438;2023-04-01T16:31:09;5.70;99.90
18506;DHT22;9382;53.242;10.438;2023-04-01T16:33:43;5.60;99.90
18506;DHT22;9382;53.242;10.438;2023-04-01T16:36:22;5.60;99.90
18506;DHT22;9382;53.242;10.438;2023-04-01T16:39:06;5.60;99.90
18506;DHT22;9382;53.242;10.438;2023-04-01T16:41:38;5.60;99.90
18506;DHT22;9382;53.242;10.438;2023-04-01T16:44:13;5.50;99.90
18506;DHT22;9382;53.242;10.438;2023-04-01T16:46:46;5.40;99.90
18506;DHT22;9382;53.242;10.438;2023-04-01T16:49:24;5.40;99.90
18506;DHT22;9382;53.242;10.438;2023-04-01T16:51:54;5.40;99.90
18506;DHT22;9382;53.242;10.438;2023-04-01T16:54:28;5.30;99.90
18506;DHT22;9382;53.242;10.438;2023-04-01T16:57:04;5.40;99.90
18506;DHT22;9382;53.242;10.438;2023-04-01T16:59:45;5.30;99.90
18506;DHT22;9382;53.242;10.438;2023-04-01T17:02:16;5.30;99.90
18506;DHT22;9382;53.242;10.438;2023-04-01T17:04:47;5.20;99.90
18506;DHT22;9382;53.242;10.438;2023-04-01T17:07:38;5.20;99.90
18506;DHT22;9382;53.242;10.438;2023-04-01T17:10:28;5.10;99.90
18506;DHT22;9382;53.242;10.438;2023-04-01T17:16:21;5.10;99.90
18506;DHT22;9382;53.242;10.438;2023-04-01T17:18:59;5.10;99.90
18506;DHT22;9382;53.242;10.438;2023-04-01T17:21:44;5.20;99.90
18506;DHT22;9382;53.242;10.438;2023-04-01T17:24:26;5.10;99.90
18506;DHT22;9382;53.242;10.438;2023-04-01T17:27:02;5.00;99.90
18506;DHT22;9382;53.242;10.438;2023-04-01T17:29:46;5.00;99.90
18506;DHT22;9382;53.242;10.438;2023-04-01T17:32:29;5.00;99.90
18506;DHT22;9382;53.242;10.438;2023-04-01T17:35:04;5.00;99.90
18506;DHT22;9382;53.242;10.438;2023-04-01T17:37:41;4.90;99.90
18506;DHT22;9382;53.242;10.438;2023-04-01T17:40:26;4.80;99.90
18506;DHT22;9382;53.242;10.438;2023-04-01T17:43:00;4.70;99.90
18506;DHT22;9382;53.242;10.438;2023-04-01T17:45:36;4.70;99.90
18506;DHT22;9382;53.242;10.438;2023-04-01T17:48:14;4.70;99.90
18506;DHT22;9382;53.242;10.438;2023-04-01T17:50:52;4.60;99.90
18506;DHT22;9382;53.242;10.438;2023-04-01T17:53:30;4.60;99.90